createdAt,value
2019-01-13T00:02:02.820Z,24.90
2019-01-13T00:07:26.722Z,18.53
2019-01-13T00:12:51.283Z,19.93
2019-01-13T00:17:54.994Z,18.53
2019-01-13T00:23:18.304Z,23.57
2019-01-13T00:28:22.150Z,17.60
2019-01-13T00:33:25.955Z,22.57
2019-01-13T00:38:49.314Z,23.07
2019-01-13T00:44:12.646Z,26.13
2019-01-13T00:49:35.992Z,20.73
2019-01-13T00:54:39.699Z,20.00
2019-01-13T00:59:43.446Z,21.40
2019-01-13T01:04:47.189Z,23.00
2019-01-13T01:10:11.462Z,18.33
2019-01-13T01:15:34.843Z,27.00
2019-01-13T01:20:38.676Z,20.10
2019-01-13T01:25:42.396Z,22.63
2019-01-13T01:36:14.951Z,21.90
2019-01-13T01:41:18.668Z,23.67
2019-01-13T01:52:11.017Z,20.57
2019-01-13T01:57:14.853Z,24.17
2019-01-13T02:02:18.598Z,26.90
2019-01-13T02:07:22.404Z,29.17
2019-01-13T02:12:26.185Z,25.90
2019-01-13T02:17:29.973Z,23.77
2019-01-13T02:22:33.797Z,26.90
2019-01-13T02:27:37.538Z,26.03
2019-01-13T02:32:41.244Z,24.17
2019-01-13T02:37:45.067Z,24.37
2019-01-13T02:42:48.876Z,26.23
2019-01-13T02:47:52.710Z,25.10
2019-01-13T02:52:56.440Z,25.60
2019-01-13T02:58:00.148Z,27.77
2019-01-13T03:03:04.036Z,24.70
2019-01-13T03:08:07.789Z,25.07
2019-01-13T03:13:31.105Z,25.73
2019-01-13T03:18:34.903Z,23.90
2019-01-13T03:23:38.667Z,26.00
2019-01-13T03:29:01.946Z,25.87
2019-01-13T03:34:05.676Z,27.27
2019-01-13T03:39:09.375Z,25.17
2019-01-13T03:44:13.151Z,28.47
2019-01-13T03:49:16.836Z,26.30
2019-01-13T03:54:20.555Z,25.63
2019-01-13T04:05:12.365Z,27.70
2019-01-13T04:10:16.387Z,24.90
2019-01-13T04:15:39.218Z,25.63
2019-01-13T04:20:42.940Z,27.47
2019-01-13T04:26:06.293Z,27.13
2019-01-13T04:31:10.087Z,27.57
2019-01-13T04:36:13.999Z,25.70
2019-01-13T04:41:37.316Z,27.23
2019-01-13T04:46:41.055Z,28.00
2019-01-13T04:51:44.832Z,29.87
2019-01-13T04:56:48.668Z,31.73
2019-01-13T05:01:52.424Z,34.97
2019-01-13T05:06:56.114Z,35.70
2019-01-13T05:12:19.476Z,39.07
2019-01-13T05:17:42.779Z,36.90
2019-01-13T05:22:48.272Z,38.07
2019-01-13T05:27:52.107Z,39.10
2019-01-13T05:33:15.419Z,36.93
2019-01-13T05:38:19.120Z,39.07
2019-01-13T05:43:22.879Z,39.93
2019-01-13T05:48:26.737Z,39.57
2019-01-13T05:53:30.651Z,38.07
2019-01-13T05:58:34.347Z,41.23
2019-01-13T06:03:38.023Z,34.53
2019-01-13T06:08:41.759Z,32.53
2019-01-13T06:13:45.495Z,34.17
2019-01-13T06:24:14.338Z,24.70
2019-01-13T06:29:18.134Z,22.73
2019-01-13T06:34:41.444Z,21.50
2019-01-13T06:39:45.314Z,20.07
2019-01-13T06:44:49.118Z,20.97
2019-01-13T06:49:52.847Z,20.20
2019-01-13T06:54:56.618Z,20.33
2019-01-13T07:00:00.337Z,19.90
2019-01-13T07:05:05.905Z,17.33
2019-01-13T07:10:09.842Z,15.87
2019-01-13T07:15:14.242Z,15.27
2019-01-13T07:20:18.824Z,14.47
2019-01-13T07:25:22.519Z,11.93
2019-01-13T07:30:27.322Z,10.87
2019-01-13T07:35:31.014Z,13.13
2019-01-13T07:40:36.499Z,9.63
2019-01-13T07:45:40.616Z,9.77
2019-01-13T07:50:44.394Z,10.20
2019-01-13T07:55:48.185Z,10.50
2019-01-13T08:00:51.935Z,12.57
2019-01-13T08:05:55.654Z,13.57
2019-01-13T08:10:59.368Z,14.40
2019-01-13T08:16:03.066Z,16.40
2019-01-13T08:21:06.779Z,15.73
2019-01-13T08:26:10.483Z,22.07
2019-01-13T08:31:14.280Z,20.17
2019-01-13T08:36:18.028Z,22.00
2019-01-13T08:41:21.784Z,21.17
2019-01-13T08:46:25.592Z,23.77
2019-01-13T08:51:29.333Z,25.23
2019-01-13T08:56:33.025Z,28.33
2019-01-13T09:01:36.859Z,17.90
2019-01-13T09:06:40.648Z,22.67
2019-01-13T09:11:44.781Z,22.57
2019-01-13T09:16:48.531Z,20.40
2019-01-13T09:21:52.353Z,17.20
2019-01-13T09:26:56.156Z,14.43
2019-01-13T09:31:59.943Z,18.97
2019-01-13T09:37:03.771Z,19.37
2019-01-13T09:42:07.489Z,13.47
2019-01-13T09:47:12.155Z,8.63
2019-01-13T09:52:16.024Z,14.77
2019-01-13T09:57:19.760Z,13.53
2019-01-13T10:02:23.477Z,11.13
2019-01-13T10:07:27.187Z,12.90
2019-01-13T10:12:30.870Z,14.53
2019-01-13T10:17:34.615Z,13.90
2019-01-13T10:22:38.315Z,14.53
2019-01-13T10:27:42.072Z,15.77
2019-01-13T10:32:46.792Z,13.13
2019-01-13T10:37:51.637Z,18.20
2019-01-13T10:42:55.502Z,16.93
2019-01-13T10:47:59.671Z,11.70
2019-01-13T10:53:04.750Z,11.97
2019-01-13T10:58:08.486Z,14.27
2019-01-13T11:03:12.206Z,11.83
2019-01-13T11:08:16.016Z,9.23
2019-01-13T11:13:19.737Z,10.27
2019-01-13T11:18:23.450Z,10.70
2019-01-13T11:23:27.260Z,8.77
2019-01-13T11:28:30.989Z,11.27
2019-01-13T11:33:34.748Z,8.30
2019-01-13T11:38:38.584Z,8.77
2019-01-13T11:43:42.327Z,6.47
2019-01-13T11:48:46.044Z,7.37
2019-01-13T11:53:49.849Z,5.93
2019-01-13T11:58:53.559Z,7.30
2019-01-13T12:03:57.570Z,7.07
2019-01-13T12:09:01.267Z,9.57
2019-01-13T12:14:05.117Z,12.50
2019-01-13T12:19:08.940Z,8.70
2019-01-13T12:24:12.682Z,7.70
2019-01-13T12:29:16.558Z,9.60
2019-01-13T12:34:20.374Z,7.93
2019-01-13T12:39:24.185Z,6.80
2019-01-13T12:44:27.948Z,7.50
2019-01-13T12:49:31.670Z,6.83
2019-01-13T12:54:35.373Z,6.50
2019-01-13T12:59:39.080Z,10.10
2019-01-13T13:04:42.786Z,10.60
2019-01-13T13:09:46.466Z,10.87
2019-01-13T13:14:50.290Z,13.57
2019-01-13T13:19:54.006Z,5.93
2019-01-13T13:24:57.767Z,6.50
2019-01-13T13:30:01.581Z,8.40
2019-01-13T13:35:06.149Z,7.40
2019-01-13T13:40:10.669Z,6.00
2019-01-13T13:45:14.834Z,6.77
2019-01-13T13:50:19.768Z,9.47
2019-01-13T13:55:23.542Z,6.33
2019-01-13T14:00:28.575Z,10.57
2019-01-13T14:05:32.324Z,11.47
2019-01-13T14:10:37.131Z,16.70
2019-01-13T14:15:40.833Z,10.17
2019-01-13T14:20:44.607Z,10.90
2019-01-13T14:25:48.280Z,8.80
2019-01-13T14:30:51.995Z,11.00
2019-01-13T14:35:55.816Z,9.43
2019-01-13T14:40:59.582Z,10.03
2019-01-13T14:46:04.006Z,13.60
2019-01-13T14:51:07.747Z,10.60
2019-01-13T14:56:11.429Z,10.47
2019-01-13T15:01:15.130Z,8.57
2019-01-13T15:06:18.802Z,6.60
2019-01-13T15:11:22.648Z,7.97
2019-01-13T15:16:26.463Z,11.07
2019-01-13T15:21:30.212Z,12.53
2019-01-13T15:26:33.953Z,11.80
2019-01-13T15:31:37.663Z,9.23
2019-01-13T15:36:41.350Z,12.37
2019-01-13T15:41:45.262Z,11.70
2019-01-13T15:46:48.972Z,10.67
2019-01-13T15:51:52.694Z,7.23
2019-01-13T15:56:56.445Z,11.07
2019-01-13T16:02:00.122Z,8.87
2019-01-13T16:07:04.024Z,11.40
2019-01-13T16:12:07.781Z,8.57
2019-01-13T16:17:11.533Z,12.87
2019-01-13T16:22:15.360Z,13.57
2019-01-13T16:27:19.082Z,16.80
2019-01-13T16:32:22.977Z,11.40
2019-01-13T16:37:26.707Z,9.80
2019-01-13T16:42:30.478Z,9.40
2019-01-13T16:47:34.203Z,9.57
2019-01-13T16:52:38.068Z,9.27
2019-01-13T16:57:41.851Z,14.70
2019-01-13T17:02:45.756Z,13.57
2019-01-13T17:07:49.537Z,9.37
2019-01-13T17:12:53.357Z,16.50
2019-01-13T17:17:57.163Z,14.37
2019-01-13T17:23:00.874Z,12.33
2019-01-13T17:28:04.616Z,9.83
2019-01-13T17:33:08.364Z,9.83
2019-01-13T17:38:12.155Z,7.93
2019-01-13T17:43:16.115Z,7.40
2019-01-13T17:48:19.854Z,13.67
2019-01-13T17:53:23.658Z,12.07
2019-01-13T17:58:27.358Z,12.67
2019-01-13T18:03:36.106Z,10.73
2019-01-13T18:08:39.974Z,7.93
2019-01-13T18:13:43.703Z,9.53
2019-01-13T18:18:47.463Z,9.97
2019-01-13T18:23:51.185Z,13.60
2019-01-13T18:28:54.921Z,11.37
2019-01-13T18:33:58.641Z,10.93
2019-01-13T18:39:02.545Z,12.13
2019-01-13T18:44:06.291Z,7.33
2019-01-13T18:49:10.181Z,10.87
2019-01-13T18:54:13.892Z,9.37
2019-01-13T18:59:17.629Z,8.63
2019-01-13T19:04:21.484Z,9.77
2019-01-13T19:09:25.249Z,7.00
2019-01-13T19:14:48.077Z,7.00
2019-01-13T19:19:52.780Z,7.67
2019-01-13T19:24:58.065Z,8.03
2019-01-13T19:30:01.781Z,7.23
2019-01-13T19:35:05.870Z,12.47
2019-01-13T19:40:13.784Z,8.90
2019-01-13T19:45:18.163Z,11.67
2019-01-13T19:50:22.930Z,14.47
2019-01-13T19:55:26.646Z,13.40
2019-01-13T20:00:39.573Z,11.53
2019-01-13T20:05:43.346Z,14.67
2019-01-13T20:10:47.085Z,10.37
2019-01-13T20:15:50.799Z,13.83
2019-01-13T20:20:54.622Z,16.47
2019-01-13T20:25:58.328Z,14.23
2019-01-13T20:31:02.111Z,18.93
2019-01-13T20:36:05.939Z,18.20
2019-01-13T20:41:09.744Z,12.10
2019-01-13T20:46:13.634Z,14.87
2019-01-13T20:51:17.382Z,19.07
2019-01-13T20:56:21.107Z,21.03
2019-01-13T21:01:24.878Z,17.90
2019-01-13T21:06:29.886Z,17.17
2019-01-13T21:11:33.931Z,26.70
2019-01-13T21:16:37.704Z,13.27
2019-01-13T21:21:41.474Z,15.27
2019-01-13T21:26:45.193Z,15.17
2019-01-13T21:31:49.005Z,16.77
2019-01-13T21:36:52.696Z,17.73
2019-01-13T21:41:56.478Z,17.23
2019-01-13T21:47:00.197Z,19.33
2019-01-13T21:52:04.023Z,15.40
2019-01-13T21:57:07.711Z,20.37
2019-01-13T22:02:11.462Z,20.40
2019-01-13T22:07:16.046Z,19.87
2019-01-13T22:12:19.833Z,20.30
2019-01-13T22:17:23.562Z,22.13
2019-01-13T22:22:27.279Z,20.17
2019-01-13T22:27:31.087Z,17.87
2019-01-13T22:32:34.807Z,24.53
2019-01-13T22:37:38.504Z,19.73
2019-01-13T22:42:42.336Z,17.93
2019-01-13T22:47:46.113Z,23.70
2019-01-13T22:52:49.843Z,20.60
2019-01-13T22:57:53.594Z,18.70
2019-01-13T23:02:57.310Z,24.23
2019-01-13T23:08:01.008Z,24.23
2019-01-13T23:13:04.907Z,21.10
2019-01-13T23:18:08.666Z,20.80
2019-01-13T23:23:12.441Z,20.50
2019-01-13T23:28:16.133Z,21.53
2019-01-13T23:33:19.936Z,18.97
2019-01-13T23:38:23.623Z,20.70
2019-01-13T23:43:27.334Z,24.83
2019-01-13T23:48:31.046Z,20.17
2019-01-13T23:53:34.730Z,15.37
2019-01-13T23:58:38.448Z,16.63
